Time;durP1;ratioP1;P1;durP2;ratioP2;P2;SDS_P1;SDS_P2;PMS_P1;PMS_P2;Temp;Humidity;BMP_temperature;BMP_pressure;BME280_temperature;BME280_humidity;BME280_pressure;Samples;Min_cycle;Max_cycle;Signal;HPM_P1;HPM_P2
2021/01/30 00:00:39;;;;;;;2.60;1.07;;;5.60;99.90;;;6.57;77.20;93312.28;5007829;28;20182;-70
2021/01/30 00:03:08;;;;;;;1.77;0.40;;;5.50;99.90;;;6.63;76.08;93306.81;5015448;28;20204;-70
2021/01/30 00:05:34;;;;;;;2.07;0.77;;;5.60;99.90;;;6.61;76.49;93302.84;5022238;28;20637;-71
2021/01/30 00:08:01;;;;;;;2.90;0.50;;;5.50;99.90;;;6.57;76.65;93307.03;5000022;28;20275;-70
2021/01/30 00:10:27;;;;;;;2.93;0.40;;;5.50;99.90;;;6.60;76.40;93311.78;4994449;28;20205;-68
2021/01/30 00:12:56;;;;;;;2.40;0.60;;;5.60;99.90;;;6.60;76.01;93301.25;5011454;28;20194;-70
2021/01/30 00:15:25;;;;;;;3.67;0.80;;;5.60;99.90;;;6.61;76.14;93305.47;5020416;28;20216;-69
2021/01/30 00:17:55;;;;;;;3.03;0.60;;;5.50;99.90;;;6.62;76.56;93309.69;5004441;28;20288;-68
2021/01/30 00:20:28;;;;;;;2.90;0.57;;;5.60;99.90;;;6.63;75.79;93309.44;5019925;28;20193;-70
2021/01/30 00:22:55;;;;;;;1.60;0.50;;;5.60;99.90;;;6.59;76.03;93308.34;5021069;28;20187;-69
2021/01/30 00:25:28;;;;;;;2.00;0.50;;;5.60;99.90;;;6.55;75.72;93295.94;5002020;28;20198;-69
2021/01/30 00:27:57;;;;;;;1.90;0.43;;;5.50;99.90;;;6.55;76.50;93303.84;5025331;28;20347;-70
2021/01/30 00:30:29;;;;;;;0.80;0.30;;;5.40;99.90;;;6.58;75.67;93308.63;5014938;28;20798;-69
2021/01/30 00:32:56;;;;;;;1.47;0.40;;;5.50;99.90;;;6.61;76.81;93308.13;5019760;28;20648;-69
2021/01/30 00:35:28;;;;;;;1.90;0.30;;;5.50;99.90;;;6.64;76.50;93310.25;5024698;28;20296;-69
2021/01/30 00:37:54;;;;;;;3.00;0.40;;;5.60;99.90;;;6.63;76.68;93312.06;5021875;28;20665;-69
2021/01/30 00:40:23;;;;;;;1.90;0.50;;;5.60;99.90;;;6.64;75.57;93312.88;5013338;28;20813;-69
2021/01/30 00:42:50;;;;;;;1.37;0.40;;;5.60;99.90;;;6.55;75.79;93306.47;5027130;28;20192;-70
2021/01/30 00:45:19;;;;;;;0.73;0.37;;;5.50;99.90;;;6.56;75.47;93305.44;4996050;28;20235;-69
2021/01/30 00:47:45;;;;;;;0.60;0.20;;;5.50;99.90;;;6.55;75.87;93311.75;5018984;28;20193;-69
2021/01/30 00:50:13;;;;;;;0.90;0.30;;;5.50;99.90;;;6.54;76.46;93313.59;5009493;28;20236;-69
2021/01/30 00:52:42;;;;;;;3.63;0.50;;;5.50;99.90;;;6.52;76.38;93310.41;5012044;28;20256;-69
2021/01/30 00:55:14;;;;;;;3.97;0.40;;;5.50;99.90;;;6.52;76.12;93310.41;4993526;28;20660;-69
2021/01/30 00:57:40;;;;;;;2.40;0.30;;;5.50;99.90;;;6.51;75.83;93321.22;5010149;28;20698;-69
2021/01/30 01:00:21;;;;;;;1.33;0.43;;;5.50;99.90;;;6.53;75.81;93316.47;5022516;28;20219;-70
2021/01/30 01:02:50;;;;;;;1.77;0.50;;;5.50;99.90;;;6.50;75.78;93317.78;5002390;28;20272;-69
2021/01/30 01:05:18;;;;;;;1.20;0.30;;;5.50;99.90;;;6.50;76.63;93315.16;5016953;28;20197;-69
2021/01/30 01:07:46;;;;;;;2.70;0.37;;;5.50;99.90;;;6.53;76.32;93327.00;5026301;28;20185;-69
2021/01/30 01:10:18;;;;;;;1.33;0.40;;;5.50;99.90;;;6.44;76.01;93312.75;5011666;28;20593;-69
2021/01/30 01:12:44;;;;;;;0.77;0.30;;;5.40;99.90;;;6.42;75.80;93320.88;5010048;28;20201;-69
2021/01/30 01:15:11;;;;;;;1.07;0.30;;;5.40;99.90;;;6.48;76.05;93325.13;5010034;28;20592;-69
2021/01/30 01:17:36;;;;;;;2.13;0.40;;;5.50;99.90;;;6.40;76.50;93320.34;5013958;28;20185;-69
2021/01/30 01:20:11;;;;;;;1.00;0.40;;;5.40;99.90;;;6.43;75.59;93326.94;5015915;28;20188;-70
2021/01/30 01:22:42;;;;;;;1.33;0.40;;;5.40;99.90;;;6.34;75.73;93331.09;5012289;28;20213;-69
2021/01/30 01:25:09;;;;;;;1.43;0.40;;;5.30;99.90;;;6.30;76.10;93327.38;4999466;28;20715;-69
2021/01/30 01:27:35;;;;;;;1.33;0.43;;;5.30;99.90;;;6.23;75.70;93329.41;5023963;28;20653;-68
2021/01/30 01:30:03;;;;;;;0.83;0.20;;;5.20;99.90;;;6.14;76.32;93319.34;5024421;28;20224;-69
2021/01/30 01:32:29;;;;;;;1.70;0.40;;;5.10;99.90;;;6.05;75.91;93325.31;5003710;28;20202;-69
2021/01/30 01:34:57;;;;;;;1.03;0.40;;;5.10;99.90;;;6.00;75.87;93326.09;5011783;28;20960;-69
2021/01/30 01:37:23;;;;;;;1.53;0.30;;;5.00;99.90;;;5.91;75.67;93326.81;5022328;28;20323;-68
2021/01/30 01:39:49;;;;;;;1.97;0.30;;;5.00;99.90;;;5.80;75.70;93320.63;5006919;28;20217;-69
2021/01/30 01:42:22;;;;;;;1.23;0.30;;;4.80;99.90;;;5.74;75.97;93312.94;5010402;28;20263;-68
2021/01/30 01:44:50;;;;;;;2.57;0.30;;;4.70;99.90;;;5.64;75.71;93306.53;5015366;28;20189;-69
2021/01/30 01:47:39;;;;;;;2.70;0.40;;;4.60;99.90;;;5.49;75.70;93316.09;5024801;28;20207;-68
2021/01/30 01:50:29;;;;;;;2.43;0.50;;;4.50;99.90;;;5.54;76.13;93305.66;5003931;28;20208;-69
2021/01/30 01:53:15;;;;;;;1.77;0.50;;;4.50;99.90;;;5.49;76.11;93305.59;5014700;28;20200;-69
2021/01/30 01:55:52;;;;;;;2.43;0.60;;;4.50;99.90;;;5.44;76.00;93287.16;5007807;28;20223;-71
2021/01/30 01:58:24;;;;;;;1.97;0.50;;;4.30;99.90;;;5.35;75.98;93292.06;5020979;28;20181;-69
2021/01/30 02:00:53;;;;;;;1.90;0.30;;;4.30;99.90;;;5.26;75.94;93300.63;5003117;28;20626;-69
2021/01/30 02:03:21;;;;;;;1.67;0.30;;;4.20;99.90;;;5.17;75.95;93287.16;5007056;28;20268;-71
2021/01/30 02:05:47;;;;;;;2.47;0.40;;;4.20;99.90;;;5.18;75.97;93289.50;5017346;28;20189;-70
2021/01/30 02:08:23;;;;;;;2.73;0.30;;;4.10;99.90;;;5.27;75.85;93286.47;5017541;28;20559;-70
2021/01/30 02:10:51;;;;;;;3.17;0.50;;;4.20;99.90;;;5.33;75.71;93288.91;5011008;28;20219;-70
2021/01/30 02:13:26;;;;;;;1.20;0.10;;;4.20;99.90;;;5.40;75.64;93280.81;5011565;28;20192;-70
2021/01/30 02:16:09;;;;;;;1.47;0.30;;;4.30;99.90;;;5.39;75.72;93279.22;5019526;28;20201;-70
2021/01/30 02:19:23;;;;;;;2.50;0.40;;;4.30;99.90;;;5.38;75.58;93265.28;5008014;28;20715;-69
2021/01/30 02:22:37;;;;;;;4.47;0.50;;;4.30;99.90;;;5.40;75.86;93267.69;5011631;28;20196;-69
2021/01/30 02:25:38;;;;;;;4.13;0.80;;;4.30;99.90;;;5.42;75.15;93262.97;5011811;28;20694;-70
2021/01/30 02:28:40;;;;;;;1.80;0.53;;;4.30;99.90;;;5.43;75.91;93254.84;5029461;28;20193;-69
2021/01/30 02:31:42;;;;;;;1.23;0.33;;;4.30;99.90;;;5.49;75.69;93260.94;5029964;28;20281;-69
2021/01/30 02:34:44;;;;;;;2.57;0.30;;;4.40;99.90;;;5.53;75.30;93262.81;5030175;28;20614;-69
2021/01/30 02:37:19;;;;;;;1.50;0.50;;;4.40;99.90;;;5.53;75.69;93256.75;5017443;28;20219;-69
2021/01/30 02:40:04;;;;;;;3.17;0.40;;;4.40;99.90;;;5.48;75.55;93251.44;5010548;28;20601;-70
2021/01/30 02:42:44;;;;;;;2.80;0.60;;;4.40;99.90;;;5.48;75.98;93243.56;4983293;28;20194;-68
2021/01/30 02:45:20;;;;;;;1.00;0.30;;;4.40;99.90;;;5.54;76.11;93235.47;5008941;28;20311;-69
2021/01/30 02:48:00;;;;;;;0.53;0.23;;;4.50;99.90;;;5.60;75.75;93241.59;4988416;28;20210;-68
2021/01/30 02:50:39;;;;;;;2.23;0.60;;;4.50;99.90;;;5.69;75.68;93234.81;5005180;28;20781;-70
2021/01/30 02:53:08;;;;;;;3.23;0.53;;;4.60;99.90;;;5.75;75.49;93241.69;5008936;28;20620;-70
2021/01/30 02:55:36;;;;;;;2.40;0.57;;;4.60;99.90;;;5.82;76.04;93237.03;5026087;28;20300;-69
2021/01/30 02:58:05;;;;;;;3.30;0.60;;;4.70;99.90;;;5.80;75.88;93220.72;5016187;28;20264;-71
2021/01/30 03:00:34;;;;;;;2.00;0.40;;;4.70;99.90;;;5.82;75.95;93226.50;5023752;28;20614;-69
2021/01/30 03:03:00;;;;;;;2.87;0.70;;;4.70;99.90;;;5.81;76.20;93224.91;5023770;28;20628;-67
2021/01/30 03:05:26;;;;;;;3.07;0.57;;;4.80;99.90;;;5.87;75.74;93223.97;5010842;28;20204;-69
2021/01/30 03:08:14;;;;;;;2.57;0.60;;;4.80;99.90;;;5.85;75.61;93223.38;5011017;28;20225;-68
2021/01/30 03:11:14;;;;;;;3.90;0.60;;;4.80;99.90;;;5.82;75.13;93229.13;5031874;28;20662;-71
2021/01/30 03:14:08;;;;;;;3.23;0.57;;;4.80;99.90;;;5.83;76.11;93229.94;5021970;28;20236;-70
2021/01/30 03:16:41;;;;;;;1.70;0.40;;;4.70;99.90;;;5.87;75.14;93221.34;5019123;28;20519;-70
2021/01/30 03:19:32;;;;;;;2.23;0.47;;;4.80;99.90;;;5.90;75.25;93217.41;5010485;28;20649;-70
2021/01/30 03:22:05;;;;;;;2.27;0.40;;;4.80;99.90;;;5.95;75.28;93220.84;5008478;28;20182;-70
2021/01/30 03:24:32;;;;;;;4.40;0.70;;;4.90;99.90;;;5.97;75.55;93215.34;5030532;28;20189;-70
2021/01/30 03:27:01;;;;;;;3.37;0.40;;;4.90;99.90;;;6.00;75.84;93214.84;5026316;28;20243;-70
2021/01/30 03:29:27;;;;;;;2.97;0.40;;;4.90;99.90;;;6.08;75.46;93215.16;5023262;28;20193;-70
2021/01/30 03:31:53;;;;;;;4.23;0.60;;;5.00;99.90;;;6.19;75.29;93216.00;4998440;28;20635;-71
2021/01/30 03:34:18;;;;;;;3.03;0.70;;;5.10;99.90;;;6.19;75.31;93214.16;5022388;28;20218;-70
2021/01/30 03:36:46;;;;;;;7.20;0.90;;;5.10;99.90;;;6.21;75.49;93213.13;5008817;28;20723;-70
2021/01/30 03:39:17;;;;;;;2.43;0.60;;;5.10;99.90;;;6.21;75.34;93219.19;5001986;28;20191;-70
2021/01/30 03:41:44;;;;;;;3.10;0.60;;;5.20;99.90;;;6.20;75.41;93196.56;5023995;28;20252;-71
2021/01/30 03:44:15;;;;;;;2.83;0.63;;;5.20;99.90;;;6.23;75.36;93200.50;5000722;28;20241;-71
2021/01/30 03:46:42;;;;;;;2.47;0.50;;;5.20;99.90;;;6.17;74.77;93192.59;5017241;28;20205;-70
2021/01/30 03:49:08;;;;;;;2.00;0.43;;;5.20;99.90;;;6.14;75.30;93181.78;5025779;28;20505;-72
2021/01/30 03:51:34;;;;;;;5.50;0.70;;;5.10;99.90;;;6.10;75.67;93186.78;5018651;28;20247;-70
2021/01/30 03:54:00;;;;;;;2.97;0.70;;;5.10;99.90;;;6.08;75.30;93193.31;5023741;28;20213;-70
2021/01/30 03:56:26;;;;;;;2.00;0.50;;;5.10;99.90;;;6.08;75.59;93180.97;5016382;28;20200;-70
2021/01/30 03:58:52;;;;;;;5.57;1.03;;;5.10;99.90;;;6.12;74.91;93174.16;5025762;28;20196;-70
2021/01/30 04:01:19;;;;;;;1.90;0.53;;;5.10;99.90;;;6.09;75.78;93172.03;5014941;28;20177;-70
2021/01/30 04:03:49;;;;;;;1.93;0.50;;;5.00;99.90;;;6.03;75.22;93172.25;5011564;28;20653;-69
2021/01/30 04:06:16;;;;;;;4.27;0.60;;;5.00;99.90;;;6.07;75.49;93168.06;5013998;28;20207;-70
2021/01/30 04:08:45;;;;;;;2.73;0.70;;;5.00;99.90;;;6.11;75.16;93156.00;5028828;28;20192;-70
2021/01/30 04:11:11;;;;;;;4.03;0.70;;;5.00;99.90;;;6.09;75.27;93151.00;5012149;28;20202;-70
2021/01/30 04:13:36;;;;;;;3.63;0.50;;;5.00;99.90;;;6.12;75.02;93147.03;5018350;28;20534;-70
2021/01/30 04:16:03;;;;;;;2.33;0.60;;;5.00;99.90;;;6.08;75.58;93136.25;5017712;28;20210;-70
2021/01/30 04:18:29;;;;;;;5.23;0.97;;;5.00;99.90;;;6.02;74.82;93141.72;5004432;28;20287;-70
2021/01/30 04:20:55;;;;;;;2.60;0.67;;;5.00;99.90;;;6.02;74.65;93145.16;5026576;28;20273;-70
2021/01/30 04:23:21;;;;;;;1.77;0.30;;;4.90;99.90;;;5.98;75.63;93130.94;5022766;28;20193;-70
2021/01/30 04:25:47;;;;;;;2.90;0.60;;;4.90;99.90;;;5.95;75.63;93128.00;5023183;28;20192;-70
2021/01/30 04:28:13;;;;;;;3.37;0.60;;;4.90;99.90;;;5.91;75.45;93117.22;5018246;28;20235;-70
2021/01/30 04:30:39;;;;;;;3.83;1.07;;;4.90;99.90;;;5.89;75.72;93119.31;5020110;28;20747;-70
2021/01/30 04:33:05;;;;;;;4.20;0.70;;;4.80;99.90;;;5.92;75.42;93126.69;5014047;28;20519;-70
2021/01/30 04:35:36;;;;;;;3.37;0.80;;;4.90;99.90;;;5.94;75.10;93114.06;5010680;28;20227;-70
2021/01/30 04:38:03;;;;;;;2.60;0.60;;;4.80;99.90;;;5.93;75.40;93103.81;5015685;28;20267;-70
2021/01/30 04:40:41;;;;;;;2.43;0.60;;;4.90;99.90;;;5.88;75.57;93111.66;5015887;28;20192;-69
2021/01/30 04:43:19;;;;;;;1.80;0.70;;;4.80;99.90;;;5.87;75.31;93105.66;5022883;28;20181;-71
2021/01/30 04:45:59;;;;;;;4.77;0.50;;;4.80;99.90;;;5.87;74.95;93096.97;5021366;28;20724;-71
2021/01/30 04:48:43;;;;;;;5.10;0.80;;;4.80;99.90;;;5.84;74.90;93102.69;5013753;28;20196;-71
2021/01/30 04:51:20;;;;;;;2.17;0.50;;;4.80;99.90;;;5.74;75.01;93102.66;5008650;28;20244;-71
2021/01/30 04:53:58;;;;;;;3.60;0.60;;;4.70;99.90;;;5.74;75.25;93100.00;5011225;28;20222;-70
2021/01/30 04:56:55;;;;;;;6.83;0.90;;;4.70;99.90;;;5.81;75.34;93103.22;5011825;28;20193;-70
2021/01/30 04:59:29;;;;;;;3.67;0.83;;;4.70;99.90;;;5.73;75.03;93104.47;5021793;28;20196;-70
2021/01/30 05:02:14;;;;;;;2.10;0.50;;;4.70;99.90;;;5.77;74.82;93107.41;5020368;28;20274;-69
2021/01/30 05:04:49;;;;;;;3.13;0.80;;;4.70;99.90;;;5.69;75.43;93090.25;5007615;28;20514;-70
2021/01/30 05:07:31;;;;;;;4.63;0.70;;;4.70;99.90;;;5.72;75.48;93100.25;5017498;28;20219;-69
2021/01/30 05:10:21;;;;;;;2.37;0.47;;;4.70;99.90;;;5.67;75.20;93090.50;5023538;28;20595;-70
2021/01/30 05:13:23;;;;;;;1.90;0.60;;;4.60;99.90;;;5.61;75.10;93077.59;5021564;28;20287;-70
2021/01/30 05:16:21;;;;;;;3.03;0.50;;;4.60;99.90;;;5.57;75.33;93066.78;5046684;28;20315;-70
2021/01/30 05:18:55;;;;;;;2.33;0.50;;;4.60;99.90;;;5.62;75.03;93063.41;4958989;28;20251;-70
2021/01/30 05:21:43;;;;;;;2.93;0.43;;;4.60;99.90;;;5.60;75.35;93066.31;4948767;28;20670;-70
2021/01/30 05:24:11;;;;;;;3.93;0.73;;;4.60;99.90;;;5.57;74.81;93052.88;4947844;29;20666;-69
2021/01/30 05:27:15;;;;;;;5.13;0.70;;;4.60;99.90;;;5.58;74.73;93064.94;4952893;28;20207;-70
2021/01/30 05:30:47;;;;;;;2.53;0.80;;;4.60;99.90;;;5.54;74.70;93042.88;4955359;28;20219;-69
2021/01/30 05:33:27;;;;;;;2.53;0.70;;;4.60;99.90;;;5.48;74.70;93034.16;4956356;28;20201;-70
2021/01/30 05:36:06;;;;;;;3.47;0.53;;;4.60;99.90;;;5.38;75.51;93035.94;4951834;28;20220;-70
2021/01/30 05:39:06;;;;;;;3.27;0.60;;;4.50;99.90;;;5.42;75.32;93044.88;4967408;28;20720;-70
2021/01/30 05:42:04;;;;;;;2.70;0.67;;;4.50;99.90;;;5.38;74.70;93020.16;4930445;29;20242;-70
2021/01/30 05:44:57;;;;;;;2.20;0.60;;;4.50;99.90;;;5.26;75.10;93011.69;4856136;29;20203;-69
2021/01/30 05:47:29;;;;;;;3.23;0.67;;;4.40;99.90;;;5.19;74.73;93011.91;4873913;29;20251;-69
2021/01/30 05:50:13;;;;;;;1.83;0.50;;;4.40;99.90;;;5.19;75.20;93001.41;4859572;29;20610;-69
2021/01/30 05:52:40;;;;;;;2.13;0.60;;;4.40;99.90;;;4.91;74.97;92978.91;4864066;29;20210;-70
2021/01/30 05:55:34;;;;;;;2.80;0.50;;;4.20;99.90;;;4.90;75.19;92984.44;4837134;29;20241;-69
2021/01/30 05:58:13;;;;;;;1.13;0.40;;;4.10;99.90;;;4.99;75.11;92978.44;4842535;29;20212;-70
2021/01/30 06:00:40;;;;;;;1.57;0.50;;;4.20;99.90;;;4.96;74.93;92978.97;4851561;29;20672;-69
2021/01/30 06:03:09;;;;;;;2.70;0.77;;;4.10;99.90;;;4.94;74.99;92977.59;4871746;29;20709;-69
2021/01/30 06:05:49;;;;;;;4.03;0.60;;;4.20;99.90;;;4.89;75.08;92980.22;4942012;29;20238;-70
2021/01/30 06:08:30;;;;;;;2.63;0.60;;;4.10;99.90;;;4.82;75.23;92983.06;4936259;29;20211;-69
2021/01/30 06:11:16;;;;;;;1.90;0.70;;;4.10;99.90;;;4.76;74.98;92997.19;4935748;29;20192;-70
2021/01/30 06:14:02;;;;;;;2.77;1.10;;;4.00;99.90;;;4.61;74.63;92997.84;4934737;29;20197;-70
2021/01/30 06:17:01;;;;;;;1.93;0.93;;;3.90;99.90;;;4.58;75.10;93010.66;4936536;29;20379;-69
2021/01/30 06:19:33;;;;;;;2.03;0.80;;;3.80;99.90;;;4.37;75.11;93004.44;4949627;28;20227;-69
2021/01/30 06:22:22;;;;;;;3.30;0.90;;;3.70;99.90;;;4.33;75.26;92995.50;4997417;28;20201;-70
2021/01/30 06:24:49;;;;;;;2.47;0.90;;;3.60;99.90;;;4.27;74.91;92993.06;5027246;28;20555;-70
2021/01/30 06:27:39;;;;;;;3.07;1.00;;;3.50;99.90;;;4.21;75.12;92994.06;5003291;28;20203;-68
2021/01/30 06:30:37;;;;;;;3.87;1.00;;;3.50;99.90;;;4.20;75.32;92976.78;5005905;28;20363;-69
2021/01/30 06:33:29;;;;;;;6.10;1.07;;;3.50;99.90;;;4.14;74.84;92979.34;5011988;28;20195;-69
2021/01/30 06:36:17;;;;;;;4.00;0.90;;;3.40;99.90;;;4.22;75.17;92990.41;5008327;28;20230;-69
2021/01/30 06:39:13;;;;;;;4.70;1.00;;;3.40;99.90;;;4.16;74.86;92975.69;4989021;28;20184;-69
2021/01/30 06:41:41;;;;;;;2.77;0.77;;;3.40;99.90;;;4.24;74.90;92964.72;5008610;28;20209;-69
2021/01/30 06:44:22;;;;;;;4.37;0.97;;;3.40;99.90;;;4.27;75.08;92965.00;4978424;28;20603;-69
2021/01/30 06:47:10;;;;;;;2.60;0.90;;;3.40;99.90;;;4.35;75.03;92980.31;4996881;28;20568;-69
2021/01/30 06:49:51;;;;;;;2.20;0.90;;;3.40;99.90;;;4.39;74.91;92976.16;5016368;28;20205;-69
2021/01/30 06:52:33;;;;;;;2.60;1.07;;;3.50;99.90;;;4.38;75.30;92966.69;5012260;28;20671;-69
2021/01/30 06:55:05;;;;;;;3.63;1.03;;;3.50;99.90;;;4.48;75.38;92964.16;5006740;28;20225;-69
2021/01/30 06:57:42;;;;;;;3.50;1.30;;;3.60;99.90;;;4.54;75.35;92960.53;5026276;28;20234;-69
2021/01/30 07:00:17;;;;;;;2.77;0.83;;;3.60;99.90;;;4.51;74.97;92955.00;5014430;28;20609;-69
2021/01/30 07:03:25;;;;;;;2.23;0.80;;;3.60;99.90;;;4.56;75.35;92941.94;5024350;28;20234;-69
2021/01/30 07:06:18;;;;;;;4.43;0.97;;;3.70;99.90;;;4.72;75.63;92948.88;5008790;28;20646;-69
2021/01/30 07:09:32;;;;;;;2.50;0.87;;;3.80;99.90;;;4.80;75.22;92953.63;4992796;28;20201;-69
2021/01/30 07:12:20;;;;;;;2.83;1.17;;;3.80;99.90;;;4.87;75.66;92940.31;4970077;28;20299;-68
2021/01/30 07:15:27;;;;;;;4.43;1.07;;;3.90;99.90;;;4.98;75.12;92953.22;4957356;28;20224;-68
2021/01/30 07:18:33;;;;;;;2.53;0.67;;;4.00;99.90;;;5.01;75.00;92946.69;4949436;28;20201;-69
2021/01/30 07:21:09;;;;;;;2.23;0.73;;;4.10;99.90;;;5.01;75.55;92959.81;4939423;28;20392;-69
2021/01/30 07:23:50;;;;;;;4.17;0.93;;;4.20;99.90;;;5.12;75.61;92949.13;4954338;28;20195;-69
2021/01/30 07:26:36;;;;;;;2.37;0.80;;;4.30;99.90;;;5.05;75.58;92943.31;4952913;28;20688;-69
2021/01/30 07:29:16;;;;;;;3.40;0.80;;;4.20;99.90;;;5.12;75.78;92938.63;4952429;28;20210;-70
2021/01/30 07:31:52;;;;;;;4.07;1.23;;;4.30;99.90;;;5.09;75.33;92938.34;4945140;28;20728;-70
2021/01/30 07:34:55;;;;;;;5.33;2.17;;;4.20;99.90;;;5.17;75.03;92940.50;4952570;28;20761;-71
2021/01/30 07:37:57;;;;;;;2.97;1.30;;;4.30;99.90;;;5.07;75.22;92914.19;4958285;28;20206;-69
2021/01/30 07:40:55;;;;;;;3.83;1.40;;;4.30;99.90;;;5.18;75.52;92939.44;4952586;28;20199;-69
2021/01/30 07:43:48;;;;;;;4.43;1.43;;;4.30;99.90;;;5.32;75.22;92922.16;4953916;28;20276;-69
2021/01/30 07:46:32;;;;;;;2.93;1.73;;;4.40;99.90;;;5.40;75.35;92918.25;4968818;28;20183;-69
2021/01/30 07:49:15;;;;;;;4.87;2.03;;;4.50;99.90;;;5.48;75.86;92923.00;5013376;28;20662;-69
2021/01/30 07:52:02;;;;;;;3.57;1.70;;;4.60;99.90;;;5.63;75.85;92904.69;5015930;28;20218;-71
2021/01/30 07:54:28;;;;;;;2.77;1.13;;;4.80;99.90;;;5.78;75.42;92904.72;4997745;28;20217;-69
2021/01/30 07:57:06;;;;;;;4.07;1.10;;;4.90;99.90;;;5.81;75.76;92913.94;5003013;28;20766;-69
2021/01/30 07:59:57;;;;;;;5.67;1.60;;;4.90;99.90;;;6.01;75.28;92892.97;5015398;28;20234;-68
2021/01/30 08:03:06;;;;;;;2.70;1.50;;;5.10;99.90;;;6.25;75.75;92886.13;5021825;28;20210;-70
2021/01/30 08:06:15;;;;;;;3.30;1.40;;;5.20;99.90;;;6.35;75.50;92888.78;5014766;28;20286;-70
2021/01/30 08:08:56;;;;;;;3.43;1.90;;;5.40;99.90;;;6.60;75.18;92895.88;5030517;28;20501;-70
2021/01/30 08:11:49;;;;;;;4.50;1.80;;;5.60;99.90;;;6.82;75.50;92896.38;5020949;28;20207;-70
2021/01/30 08:14:34;;;;;;;3.83;2.10;;;5.90;99.90;;;6.86;75.67;92878.19;5003438;28;20202;-71
2021/01/30 08:17:51;;;;;;;4.43;1.63;;;6.00;99.90;;;6.95;75.72;92887.16;5018313;28;20183;-70
2021/01/30 08:20:32;;;;;;;2.03;1.10;;;6.20;99.90;;;7.09;75.33;92872.34;5005315;28;20186;-70
2021/01/30 08:23:24;;;;;;;2.60;1.60;;;6.20;99.90;;;7.04;74.63;92849.44;5012118;28;20240;-71
2021/01/30 08:25:58;;;;;;;1.20;0.80;;;6.30;99.90;;;6.82;75.00;92838.44;5021915;28;20187;-71
2021/01/30 08:29:11;;;;;;;2.97;1.20;;;6.10;99.90;;;7.01;75.34;92844.72;5011141;28;20202;-71
2021/01/30 08:31:43;;;;;;;1.73;0.80;;;6.10;99.90;;;7.03;75.50;92820.72;5005987;28;20218;-70
2021/01/30 08:34:17;;;;;;;2.57;0.93;;;6.20;99.90;;;7.43;75.55;92828.47;5007343;28;20218;-71
2021/01/30 08:36:53;;;;;;;0.90;0.50;;;6.40;99.90;;;7.59;75.10;92837.88;5014172;28;20185;-74
2021/01/30 08:39:35;;;;;;;2.17;0.80;;;6.60;99.90;;;7.99;75.07;92833.44;5010059;28;20674;-74
2021/01/30 08:42:18;;;;;;;3.77;1.10;;;7.00;99.90;;;8.51;75.15;92811.66;5019850;28;20736;-73
2021/01/30 08:44:53;;;;;;;3.30;0.90;;;7.50;99.90;;;8.98;75.23;92805.63;5003186;28;20202;-74
2021/01/30 08:47:25;;;;;;;2.10;0.80;;;8.00;99.90;;;9.52;75.34;92807.88;5005063;28;20200;-74
2021/01/30 08:50:13;;;;;;;2.00;0.80;;;8.40;99.90;;;10.73;75.34;92832.56;5020634;28;20184;-73
2021/01/30 08:52:48;;;;;;;1.97;0.57;;;9.50;99.90;;;11.16;74.95;92818.00;5017488;28;20200;-74
2021/01/30 08:55:44;;;;;;;2.30;0.70;;;10.20;99.90;;;11.73;75.49;92816.59;5016626;28;20208;-73
2021/01/30 08:58:32;;;;;;;1.50;0.80;;;11.00;99.90;;;11.84;75.32;92795.94;5021946;28;20189;-73
2021/01/30 09:01:36;;;;;;;4.40;1.23;;;11.30;99.90;;;11.23;75.34;92736.16;5019107;28;20549;-71
2021/01/30 09:04:04;;;;;;;5.07;1.17;;;11.10;99.90;;;10.55;75.00;92717.63;5013660;28;20230;-70
2021/01/30 09:06:39;;;;;;;2.80;1.10;;;10.40;99.90;;;9.91;74.71;92731.66;5012473;28;20244;-71
2021/01/30 09:09:18;;;;;;;3.00;1.20;;;9.80;99.90;;;9.38;74.71;92740.91;5024509;28;20231;-70
2021/01/30 09:11:47;;;;;;;2.80;2.17;;;9.20;99.90;;;8.87;74.34;92730.19;5007409;28;20594;-71
2021/01/30 09:14:19;;;;;;;3.60;2.00;;;8.60;99.90;;;8.46;74.04;92751.00;5016610;28;20225;-71
2021/01/30 09:16:53;;;;;;;3.17;1.77;;;8.00;99.90;;;8.52;74.12;92757.78;5017582;28;20196;-73
2021/01/30 09:19:45;;;;;;;3.17;1.70;;;7.90;99.90;;;8.52;74.17;92779.69;5017419;28;20219;-71
2021/01/30 09:22:38;;;;;;;2.60;1.50;;;7.90;99.90;;;8.51;73.97;92775.47;4999592;28;20188;-70
2021/01/30 09:25:27;;;;;;;3.67;1.60;;;7.90;99.90;;;8.59;73.96;92795.22;5021630;28;20660;-71
2021/01/30 09:28:18;;;;;;;2.67;1.40;;;8.00;99.90;;;8.59;74.47;92782.81;5025166;28;20191;-73
2021/01/30 09:31:02;;;;;;;2.73;1.30;;;8.00;99.90;;;8.68;74.23;92780.31;5016315;28;20629;-71
2021/01/30 09:33:39;;;;;;;3.50;1.13;;;8.10;99.90;;;8.74;74.38;92787.13;5003108;28;20255;-71
2021/01/30 09:36:23;;;;;;;2.23;1.30;;;8.10;99.90;;;8.40;74.30;92781.13;5024639;28;20298;-70
2021/01/30 09:38:58;;;;;;;2.50;1.43;;;7.90;99.90;;;8.48;73.99;92785.81;5011386;28;20197;-71
2021/01/30 09:41:34;;;;;;;3.73;1.90;;;7.80;99.90;;;8.30;74.31;92776.72;5026316;28;20179;-71
2021/01/30 09:44:25;;;;;;;1.90;1.50;;;7.60;99.90;;;8.48;73.99;92762.03;5000188;28;20182;-71
2021/01/30 09:47:05;;;;;;;2.63;1.23;;;7.70;99.90;;;8.86;74.19;92763.75;5007480;28;20249;-70
2021/01/30 09:49:44;;;;;;;2.50;0.97;;;8.00;99.90;;;9.35;74.12;92783.78;5001584;28;20185;-71
2021/01/30 09:52:17;;;;;;;3.30;1.10;;;8.40;99.90;;;9.50;73.96;92765.09;5020271;28;20275;-71
2021/01/30 09:54:43;;;;;;;1.50;0.97;;;8.70;99.90;;;9.64;74.17;92769.34;5007288;28;20223;-71
2021/01/30 09:57:17;;;;;;;3.80;1.13;;;8.90;99.90;;;9.63;73.84;92777.59;5014254;28;20186;-70
2021/01/30 09:59:43;;;;;;;2.13;1.10;;;8.90;99.90;;;9.74;73.63;92779.00;5004993;28;20189;-71
2021/01/30 10:02:23;;;;;;;2.67;1.20;;;9.10;99.90;;;9.73;73.64;92780.88;5024087;28;20221;-71
2021/01/30 10:05:17;;;;;;;2.97;1.50;;;9.20;99.90;;;9.86;73.78;92781.22;5009073;28;20561;-71
2021/01/30 10:07:44;;;;;;;3.60;1.50;;;9.30;99.90;;;9.90;73.81;92753.91;5010514;28;20193;-71
2021/01/30 10:10:22;;;;;;;4.00;1.20;;;9.40;99.90;;;10.11;73.44;92757.78;5008433;28;20649;-71
2021/01/30 10:12:48;;;;;;;2.53;1.10;;;9.60;99.90;;;10.19;73.55;92746.59;5027609;28;20208;-71
2021/01/30 10:15:36;;;;;;;5.20;1.30;;;9.70;99.90;;;10.20;73.29;92758.75;5033707;28;20206;-71
2021/01/30 10:18:12;;;;;;;2.27;1.20;;;9.70;99.90;;;10.27;73.22;92750.44;5023077;28;20184;-71
2021/01/30 10:20:56;;;;;;;2.93;1.27;;;9.80;99.90;;;10.34;73.14;92739.47;5004447;28;20741;-70
2021/01/30 10:23:54;;;;;;;3.83;1.40;;;9.90;99.90;;;10.37;73.13;92733.59;5027180;28;20206;-72
2021/01/30 10:26:28;;;;;;;1.50;1.20;;;10.00;99.90;;;10.46;73.30;92722.03;5017263;28;20300;-71
2021/01/30 10:28:59;;;;;;;2.53;1.30;;;10.10;99.90;;;10.06;73.12;92712.91;5020545;28;20241;-71
2021/01/30 10:31:31;;;;;;;2.27;1.17;;;9.90;99.90;;;9.84;72.94;92720.66;5003187;28;20224;-71
2021/01/30 10:34:16;;;;;;;1.53;1.00;;;9.60;99.90;;;9.44;72.90;92731.81;5013938;28;20192;-71
2021/01/30 10:36:56;;;;;;;2.30;1.17;;;9.20;99.90;;;9.33;72.73;92709.25;5019014;28;20196;-70
2021/01/30 10:39:24;;;;;;;2.27;1.13;;;9.00;99.90;;;9.43;72.83;92688.75;4996679;28;20191;-71
2021/01/30 10:41:58;;;;;;;2.57;1.30;;;9.00;99.90;;;9.02;72.51;92699.09;5023186;28;20221;-73
2021/01/30 10:44:30;;;;;;;3.07;1.40;;;8.70;99.90;;;9.00;72.23;92717.06;5018034;28;20226;-71
2021/01/30 10:47:03;;;;;;;3.20;1.30;;;8.50;99.90;;;9.23;72.75;92728.69;5012939;28;20208;-72
2021/01/30 10:49:36;;;;;;;3.40;1.40;;;8.70;99.90;;;9.43;72.75;92717.06;5017434;28;20184;-74
2021/01/30 10:52:23;;;;;;;3.17;1.40;;;8.80;99.90;;;9.09;72.93;92691.59;5016451;28;20773;-73
2021/01/30 10:54:49;;;;;;;2.40;1.77;;;8.70;99.90;;;9.26;72.64;92705.13;5029056;28;20207;-71
2021/01/30 10:57:18;;;;;;;2.77;1.20;;;8.70;99.90;;;9.31;72.71;92698.97;5017188;28;20185;-73
2021/01/30 10:59:57;;;;;;;1.90;1.10;;;8.80;99.90;;;9.24;72.78;92701.97;5029972;28;20698;-73
2021/01/30 11:02:41;;;;;;;3.17;1.70;;;8.80;99.90;;;9.12;73.04;92692.88;5006763;28;20275;-72
2021/01/30 11:05:20;;;;;;;2.83;1.50;;;8.70;99.90;;;9.04;72.60;92672.38;5005181;28;20184;-73
2021/01/30 11:07:54;;;;;;;3.20;1.47;;;8.60;99.90;;;8.81;72.44;92667.91;5017426;28;20279;-72
2021/01/30 11:10:38;;;;;;;3.30;1.53;;;8.50;99.90;;;8.81;72.23;92697.75;5025612;28;20196;-73
2021/01/30 11:13:24;;;;;;;4.00;1.63;;;8.30;99.90;;;8.57;72.27;92684.56;5014705;28;20188;-74
2021/01/30 11:16:04;;;;;;;3.33;1.50;;;8.20;99.90;;;8.67;72.43;92675.75;5010283;28;20832;-71
2021/01/30 11:18:41;;;;;;;2.87;1.40;;;8.20;99.90;;;8.60;72.72;92677.94;5027827;28;20180;-73
2021/01/30 11:21:11;;;;;;;2.50;1.50;;;8.10;99.90;;;8.61;72.68;92676.88;5004648;28;20206;-71